sensor_id;sensor_type;location;lat;lon;timestamp;P1;durP1;ratioP1;P2;durP2;ratioP2
22650;SDS011;11492;42.646;23.400;2023-02-10T00:01:13;24.35;;;10.38;;
22650;SDS011;11492;42.646;23.400;2023-02-10T00:03:39;28.58;;;9.85;;
22650;SDS011;11492;42.646;23.400;2023-02-10T00:06:05;22.33;;;10.30;;
22650;SDS011;11492;42.646;23.400;2023-02-10T00:08:31;21.92;;;9.82;;
22650;SDS011;11492;42.646;23.400;2023-02-10T00:10:57;24.67;;;10.45;;
22650;SDS011;11492;42.646;23.400;2023-02-10T00:13:28;24.63;;;10.77;;
22650;SDS011;11492;42.646;23.400;2023-02-10T00:15:54;24.63;;;10.70;;
22650;SDS011;11492;42.646;23.400;2023-02-10T00:18:21;27.25;;;11.30;;
22650;SDS011;11492;42.646;23.400;2023-02-10T00:20:47;25.88;;;11.13;;
22650;SDS011;11492;42.646;23.400;2023-02-10T00:23:12;27.40;;;11.23;;
22650;SDS011;11492;42.646;23.400;2023-02-10T00:25:38;23.67;;;10.40;;
22650;SDS011;11492;42.646;23.400;2023-02-10T00:28:03;25.52;;;10.10;;
22650;SDS011;11492;42.646;23.400;2023-02-10T00:30:30;24.17;;;10.60;;
22650;SDS011;11492;42.646;23.400;2023-02-10T00:32:56;22.42;;;10.55;;
22650;SDS011;11492;42.646;23.400;2023-02-10T00:35:21;23.15;;;10.75;;
22650;SDS011;11492;42.646;23.400;2023-02-10T00:37:47;26.95;;;10.63;;
22650;SDS011;11492;42.646;23.400;2023-02-10T00:40:13;21.90;;;9.80;;
22650;SDS011;11492;42.646;23.400;2023-02-10T00:42:38;25.77;;;10.35;;
22650;SDS011;11492;42.646;23.400;2023-02-10T00:45:04;27.35;;;11.65;;
22650;SDS011;11492;42.646;23.400;2023-02-10T00:47:29;30.00;;;11.13;;
22650;SDS011;11492;42.646;23.400;2023-02-10T00:49:55;25.90;;;10.98;;
22650;SDS011;11492;42.646;23.400;2023-02-10T00:52:21;29.35;;;11.38;;
22650;SDS011;11492;42.646;23.400;2023-02-10T00:54:47;25.42;;;10.55;;
22650;SDS011;11492;42.646;23.400;2023-02-10T00:57:12;25.83;;;11.07;;
22650;SDS011;11492;42.646;23.400;2023-02-10T00:59:38;25.08;;;10.90;;
22650;SDS011;11492;42.646;23.400;2023-02-10T01:02:03;31.85;;;10.38;;
22650;SDS011;11492;42.646;23.400;2023-02-10T01:04:29;26.38;;;11.15;;
22650;SDS011;11492;42.646;23.400;2023-02-10T01:06:54;32.30;;;11.43;;
22650;SDS011;11492;42.646;23.400;2023-02-10T01:09:19;30.63;;;11.40;;
22650;SDS011;11492;42.646;23.400;2023-02-10T01:11:45;26.70;;;10.80;;
22650;SDS011;11492;42.646;23.400;2023-02-10T01:14:10;27.73;;;10.65;;
22650;SDS011;11492;42.646;23.400;2023-02-10T01:16:36;23.95;;;10.23;;
22650;SDS011;11492;42.646;23.400;2023-02-10T01:19:02;26.02;;;10.82;;
22650;SDS011;11492;42.646;23.400;2023-02-10T01:21:27;26.45;;;10.95;;
22650;SDS011;11492;42.646;23.400;2023-02-10T01:23:54;22.95;;;9.73;;
22650;SDS011;11492;42.646;23.400;2023-02-10T01:26:20;24.27;;;10.32;;
22650;SDS011;11492;42.646;23.400;2023-02-10T01:28:46;25.48;;;10.82;;
22650;SDS011;11492;42.646;23.400;2023-02-10T01:31:13;25.58;;;11.00;;
22650;SDS011;11492;42.646;23.400;2023-02-10T01:33:41;27.73;;;10.15;;
22650;SDS011;11492;42.646;23.400;2023-02-10T01:36:08;26.58;;;10.68;;
22650;SDS011;11492;42.646;23.400;2023-02-10T01:38:36;25.23;;;10.98;;
22650;SDS011;11492;42.646;23.400;2023-02-10T01:41:03;28.13;;;10.32;;
22650;SDS011;11492;42.646;23.400;2023-02-10T01:43:29;27.00;;;9.95;;
22650;SDS011;11492;42.646;23.400;2023-02-10T01:45:55;27.23;;;10.02;;
22650;SDS011;11492;42.646;23.400;2023-02-10T01:48:20;28.70;;;10.18;;
22650;SDS011;11492;42.646;23.400;2023-02-10T01:50:48;24.17;;;10.50;;
22650;SDS011;11492;42.646;23.400;2023-02-10T01:53:17;31.02;;;10.65;;
22650;SDS011;11492;42.646;23.400;2023-02-10T01:55:46;24.20;;;10.38;;
22650;SDS011;11492;42.646;23.400;2023-02-10T01:58:16;25.00;;;10.05;;
22650;SDS011;11492;42.646;23.400;2023-02-10T02:00:44;23.02;;;11.15;;
22650;SDS011;11492;42.646;23.400;2023-02-10T02:03:10;29.13;;;10.23;;
22650;SDS011;11492;42.646;23.400;2023-02-10T02:05:40;27.40;;;10.32;;
22650;SDS011;11492;42.646;23.400;2023-02-10T02:08:08;28.42;;;10.07;;
22650;SDS011;11492;42.646;23.400;2023-02-10T02:13:35;24.33;;;9.95;;
22650;SDS011;11492;42.646;23.400;2023-02-10T02:21:45;24.50;;;10.07;;
22650;SDS011;11492;42.646;23.400;2023-02-10T02:24:25;22.08;;;10.20;;
22650;SDS011;11492;42.646;23.400;2023-02-10T02:29:56;24.13;;;10.77;;
22650;SDS011;11492;42.646;23.400;2023-02-10T02:35:27;25.17;;;10.32;;
22650;SDS011;11492;42.646;23.400;2023-02-10T02:37:59;24.58;;;10.25;;
22650;SDS011;11492;42.646;23.400;2023-02-10T02:40:24;29.35;;;10.73;;
22650;SDS011;11492;42.646;23.400;2023-02-10T02:42:50;25.55;;;10.98;;
22650;SDS011;11492;42.646;23.400;2023-02-10T02:45:19;28.08;;;10.73;;
22650;SDS011;11492;42.646;23.400;2023-02-10T02:48:02;25.58;;;11.45;;
22650;SDS011;11492;42.646;23.400;2023-02-10T02:50:47;31.85;;;11.63;;
22650;SDS011;11492;42.646;23.400;2023-02-10T02:58:47;36.28;;;11.60;;
22650;SDS011;11492;42.646;23.400;2023-02-10T03:01:20;31.95;;;12.32;;
22650;SDS011;11492;42.646;23.400;2023-02-10T03:03:51;32.33;;;13.38;;
22650;SDS011;11492;42.646;23.400;2023-02-10T03:06:18;33.08;;;13.77;;
22650;SDS011;11492;42.646;23.400;2023-02-10T03:08:44;32.65;;;12.65;;
22650;SDS011;11492;42.646;23.400;2023-02-10T03:11:09;32.03;;;12.55;;
22650;SDS011;11492;42.646;23.400;2023-02-10T03:13:35;31.15;;;12.88;;
22650;SDS011;11492;42.646;23.400;2023-02-10T03:16:00;34.70;;;12.65;;
22650;SDS011;11492;42.646;23.400;2023-02-10T03:18:27;34.33;;;13.15;;
22650;SDS011;11492;42.646;23.400;2023-02-10T03:20:53;33.65;;;13.48;;
22650;SDS011;11492;42.646;23.400;2023-02-10T03:23:18;27.95;;;13.02;;
22650;SDS011;11492;42.646;23.400;2023-02-10T03:25:44;35.13;;;13.77;;
22650;SDS011;11492;42.646;23.400;2023-02-10T03:28:10;37.53;;;14.88;;
22650;SDS011;11492;42.646;23.400;2023-02-10T03:30:36;38.92;;;14.68;;
22650;SDS011;11492;42.646;23.400;2023-02-10T03:33:03;42.50;;;15.63;;
22650;SDS011;11492;42.646;23.400;2023-02-10T03:35:29;33.85;;;14.70;;
22650;SDS011;11492;42.646;23.400;2023-02-10T03:37:54;34.50;;;14.70;;
22650;SDS011;11492;42.646;23.400;2023-02-10T03:40:20;34.22;;;13.77;;
22650;SDS011;11492;42.646;23.400;2023-02-10T03:42:45;37.00;;;13.75;;
22650;SDS011;11492;42.646;23.400;2023-02-10T03:45:10;32.03;;;13.02;;
22650;SDS011;11492;42.646;23.400;2023-02-10T03:47:36;37.25;;;13.85;;
22650;SDS011;11492;42.646;23.400;2023-02-10T03:50:01;32.13;;;13.88;;
22650;SDS011;11492;42.646;23.400;2023-02-10T03:52:27;32.90;;;13.73;;
22650;SDS011;11492;42.646;23.400;2023-02-10T03:54:52;38.53;;;14.68;;
22650;SDS011;11492;42.646;23.400;2023-02-10T03:57:18;30.65;;;13.40;;
22650;SDS011;11492;42.646;23.400;2023-02-10T03:59:43;33.53;;;14.43;;
22650;SDS011;11492;42.646;23.400;2023-02-10T04:02:09;39.72;;;15.10;;
22650;SDS011;11492;42.646;23.400;2023-02-10T04:04:34;37.10;;;14.82;;
22650;SDS011;11492;42.646;23.400;2023-02-10T04:07:01;44.17;;;15.07;;
22650;SDS011;11492;42.646;23.400;2023-02-10T04:09:27;38.65;;;15.15;;
22650;SDS011;11492;42.646;23.400;2023-02-10T04:11:53;36.28;;;14.00;;
22650;SDS011;11492;42.646;23.400;2023-02-10T04:14:19;30.05;;;12.30;;
22650;SDS011;11492;42.646;23.400;2023-02-10T04:16:44;26.67;;;13.00;;
22650;SDS011;11492;42.646;23.400;2023-02-10T04:19:09;26.90;;;12.27;;
22650;SDS011;11492;42.646;23.400;2023-02-10T04:21:35;32.60;;;13.73;;
22650;SDS011;11492;42.646;23.400;2023-02-10T04:24:00;30.92;;;12.85;;
22650;SDS011;11492;42.646;23.400;2023-02-10T04:26:26;34.53;;;12.90;;
22650;SDS011;11492;42.646;23.400;2023-02-10T04:28:51;35.05;;;12.93;;
22650;SDS011;11492;42.646;23.400;2023-02-10T04:31:17;32.08;;;12.57;;
22650;SDS011;11492;42.646;23.400;2023-02-10T04:33:42;28.60;;;12.43;;
22650;SDS011;11492;42.646;23.400;2023-02-10T04:36:08;29.73;;;11.85;;
22650;SDS011;11492;42.646;23.400;2023-02-10T04:38:34;33.58;;;12.65;;
22650;SDS011;11492;42.646;23.400;2023-02-10T04:41:00;31.13;;;12.50;;
22650;SDS011;11492;42.646;23.400;2023-02-10T04:43:27;29.17;;;12.65;;
22650;SDS011;11492;42.646;23.400;2023-02-10T04:45:53;29.75;;;11.95;;
22650;SDS011;11492;42.646;23.400;2023-02-10T04:48:19;32.38;;;12.35;;
22650;SDS011;11492;42.646;23.400;2023-02-10T04:50:46;27.42;;;11.95;;
22650;SDS011;11492;42.646;23.400;2023-02-10T04:53:12;29.70;;;12.90;;
22650;SDS011;11492;42.646;23.400;2023-02-10T04:55:37;32.28;;;12.48;;
22650;SDS011;11492;42.646;23.400;2023-02-10T04:58:02;35.35;;;12.25;;
22650;SDS011;11492;42.646;23.400;2023-02-10T05:00:28;27.60;;;11.45;;
22650;SDS011;11492;42.646;23.400;2023-02-10T05:02:53;21.27;;;8.48;;
22650;SDS011;11492;42.646;23.400;2023-02-10T05:05:19;27.42;;;11.60;;
22650;SDS011;11492;42.646;23.400;2023-02-10T05:07:45;25.92;;;10.65;;
22650;SDS011;11492;42.646;23.400;2023-02-10T05:10:10;33.35;;;10.63;;
22650;SDS011;11492;42.646;23.400;2023-02-10T05:12:36;30.23;;;11.57;;
22650;SDS011;11492;42.646;23.400;2023-02-10T05:15:01;25.65;;;11.63;;
22650;SDS011;11492;42.646;23.400;2023-02-10T05:17:27;27.83;;;11.57;;
22650;SDS011;11492;42.646;23.400;2023-02-10T05:19:52;26.40;;;10.93;;
22650;SDS011;11492;42.646;23.400;2023-02-10T05:22:17;23.83;;;9.25;;
22650;SDS011;11492;42.646;23.400;2023-02-10T05:24:43;26.88;;;12.35;;
22650;SDS011;11492;42.646;23.400;2023-02-10T05:27:09;40.53;;;14.80;;
22650;SDS011;11492;42.646;23.400;2023-02-10T05:29:34;106.60;;;37.10;;
22650;SDS011;11492;42.646;23.400;2023-02-10T05:31:59;32.50;;;13.32;;
22650;SDS011;11492;42.646;23.400;2023-02-10T05:34:25;30.77;;;12.65;;
22650;SDS011;11492;42.646;23.400;2023-02-10T05:36:51;32.45;;;13.00;;
22650;SDS011;11492;42.646;23.400;2023-02-10T05:39:17;31.02;;;11.38;;
22650;SDS011;11492;42.646;23.400;2023-02-10T05:41:49;32.58;;;11.98;;
22650;SDS011;11492;42.646;23.400;2023-02-10T05:44:18;29.75;;;11.98;;
22650;SDS011;11492;42.646;23.400;2023-02-10T05:46:44;28.58;;;10.23;;
22650;SDS011;11492;42.646;23.400;2023-02-10T05:49:09;31.17;;;10.82;;
22650;SDS011;11492;42.646;23.400;2023-02-10T05:51:35;26.63;;;10.65;;
22650;SDS011;11492;42.646;23.400;2023-02-10T05:54:00;30.35;;;11.25;;
22650;SDS011;11492;42.646;23.400;2023-02-10T05:56:26;28.13;;;10.63;;
22650;SDS011;11492;42.646;23.400;2023-02-10T05:58:51;25.15;;;11.55;;
22650;SDS011;11492;42.646;23.400;2023-02-10T06:01:17;31.52;;;11.35;;
22650;SDS011;11492;42.646;23.400;2023-02-10T06:03:42;33.63;;;11.93;;
22650;SDS011;11492;42.646;23.400;2023-02-10T06:06:07;31.80;;;13.15;;
22650;SDS011;11492;42.646;23.400;2023-02-10T06:08:34;33.78;;;12.23;;
22650;SDS011;11492;42.646;23.400;2023-02-10T06:10:59;31.38;;;13.75;;
22650;SDS011;11492;42.646;23.400;2023-02-10T06:13:25;30.73;;;13.63;;
22650;SDS011;11492;42.646;23.400;2023-02-10T06:15:50;33.80;;;14.35;;
22650;SDS011;11492;42.646;23.400;2023-02-10T06:18:16;35.30;;;16.00;;
22650;SDS011;11492;42.646;23.400;2023-02-10T06:20:41;48.92;;;16.05;;
22650;SDS011;11492;42.646;23.400;2023-02-10T06:23:09;44.90;;;15.93;;
22650;SDS011;11492;42.646;23.400;2023-02-10T06:25:35;43.30;;;15.75;;
22650;SDS011;11492;42.646;23.400;2023-02-10T06:28:01;40.88;;;14.75;;
22650;SDS011;11492;42.646;23.400;2023-02-10T06:30:27;36.47;;;14.23;;
22650;SDS011;11492;42.646;23.400;2023-02-10T06:32:52;44.65;;;15.88;;
22650;SDS011;11492;42.646;23.400;2023-02-10T06:35:18;36.50;;;14.90;;
22650;SDS011;11492;42.646;23.400;2023-02-10T06:37:43;37.35;;;13.95;;
22650;SDS011;11492;42.646;23.400;2023-02-10T06:40:09;34.58;;;14.13;;
22650;SDS011;11492;42.646;23.400;2023-02-10T06:42:35;42.17;;;15.43;;
22650;SDS011;11492;42.646;23.400;2023-02-10T06:45:00;43.40;;;16.60;;
22650;SDS011;11492;42.646;23.400;2023-02-10T06:47:26;48.08;;;16.55;;
22650;SDS011;11492;42.646;23.400;2023-02-10T06:49:52;44.78;;;16.73;;
22650;SDS011;11492;42.646;23.400;2023-02-10T06:52:17;42.78;;;17.40;;
22650;SDS011;11492;42.646;23.400;2023-02-10T06:54:43;43.25;;;17.33;;
22650;SDS011;11492;42.646;23.400;2023-02-10T06:57:09;43.47;;;18.02;;
22650;SDS011;11492;42.646;23.400;2023-02-10T06:59:35;51.42;;;17.85;;
22650;SDS011;11492;42.646;23.400;2023-02-10T07:02:00;45.47;;;17.20;;
22650;SDS011;11492;42.646;23.400;2023-02-10T07:04:30;39.83;;;16.58;;
22650;SDS011;11492;42.646;23.400;2023-02-10T07:06:56;41.50;;;17.65;;
22650;SDS011;11492;42.646;23.400;2023-02-10T07:09:22;40.75;;;15.60;;
22650;SDS011;11492;42.646;23.400;2023-02-10T07:11:48;38.97;;;15.75;;
22650;SDS011;11492;42.646;23.400;2023-02-10T07:14:13;44.38;;;16.83;;
22650;SDS011;11492;42.646;23.400;2023-02-10T07:16:39;41.10;;;14.48;;
22650;SDS011;11492;42.646;23.400;2023-02-10T07:19:04;43.53;;;15.90;;
22650;SDS011;11492;42.646;23.400;2023-02-10T07:21:30;37.72;;;14.75;;
22650;SDS011;11492;42.646;23.400;2023-02-10T07:23:55;30.42;;;13.75;;
22650;SDS011;11492;42.646;23.400;2023-02-10T07:26:21;35.65;;;14.55;;
22650;SDS011;11492;42.646;23.400;2023-02-10T07:28:46;28.05;;;13.40;;
22650;SDS011;11492;42.646;23.400;2023-02-10T07:31:12;39.80;;;15.25;;
22650;SDS011;11492;42.646;23.400;2023-02-10T07:33:37;39.00;;;16.35;;
22650;SDS011;11492;42.646;23.400;2023-02-10T07:36:03;43.78;;;16.63;;
22650;SDS011;11492;42.646;23.400;2023-02-10T07:38:30;55.78;;;19.17;;
22650;SDS011;11492;42.646;23.400;2023-02-10T07:40:56;52.00;;;19.27;;
22650;SDS011;11492;42.646;23.400;2023-02-10T07:43:23;48.05;;;18.38;;
22650;SDS011;11492;42.646;23.400;2023-02-10T07:45:48;56.13;;;19.42;;
22650;SDS011;11492;42.646;23.400;2023-02-10T07:48:17;45.83;;;19.13;;
22650;SDS011;11492;42.646;23.400;2023-02-10T07:50:43;53.05;;;17.95;;
22650;SDS011;11492;42.646;23.400;2023-02-10T07:53:10;42.05;;;18.88;;
22650;SDS011;11492;42.646;23.400;2023-02-10T07:55:36;44.88;;;18.42;;
22650;SDS011;11492;42.646;23.400;2023-02-10T07:58:02;46.20;;;18.92;;
22650;SDS011;11492;42.646;23.400;2023-02-10T08:00:28;53.95;;;19.45;;
22650;SDS011;11492;42.646;23.400;2023-02-10T08:02:54;46.45;;;20.02;;
22650;SDS011;11492;42.646;23.400;2023-02-10T08:05:19;49.83;;;20.13;;
22650;SDS011;11492;42.646;23.400;2023-02-10T08:07:46;49.92;;;20.17;;
22650;SDS011;11492;42.646;23.400;2023-02-10T08:10:11;47.00;;;19.50;;
22650;SDS011;11492;42.646;23.400;2023-02-10T08:12:37;46.13;;;19.77;;
22650;SDS011;11492;42.646;23.400;2023-02-10T08:15:02;54.70;;;20.25;;
22650;SDS011;11492;42.646;23.400;2023-02-10T08:17:28;51.67;;;20.30;;
22650;SDS011;11492;42.646;23.400;2023-02-10T08:19:54;52.60;;;19.67;;
22650;SDS011;11492;42.646;23.400;2023-02-10T08:22:19;47.85;;;19.73;;
22650;SDS011;11492;42.646;23.400;2023-02-10T08:24:44;47.75;;;18.15;;
22650;SDS011;11492;42.646;23.400;2023-02-10T08:27:10;43.10;;;19.30;;
22650;SDS011;11492;42.646;23.400;2023-02-10T08:29:35;43.58;;;19.02;;
22650;SDS011;11492;42.646;23.400;2023-02-10T08:32:01;49.30;;;17.85;;
22650;SDS011;11492;42.646;23.400;2023-02-10T08:34:26;40.97;;;17.08;;
22650;SDS011;11492;42.646;23.400;2023-02-10T08:36:52;35.90;;;16.40;;
22650;SDS011;11492;42.646;23.400;2023-02-10T08:39:18;47.88;;;16.70;;
22650;SDS011;11492;42.646;23.400;2023-02-10T08:41:44;31.80;;;15.45;;
22650;SDS011;11492;42.646;23.400;2023-02-10T08:44:10;35.60;;;16.13;;
22650;SDS011;11492;42.646;23.400;2023-02-10T08:46:37;38.58;;;16.80;;
22650;SDS011;11492;42.646;23.400;2023-02-10T08:49:02;33.92;;;16.33;;
22650;SDS011;11492;42.646;23.400;2023-02-10T08:51:28;31.85;;;16.00;;
22650;SDS011;11492;42.646;23.400;2023-02-10T08:53:55;36.22;;;15.85;;
22650;SDS011;11492;42.646;23.400;2023-02-10T08:56:21;37.92;;;15.38;;
22650;SDS011;11492;42.646;23.400;2023-02-10T08:58:47;36.28;;;15.18;;
22650;SDS011;11492;42.646;23.400;2023-02-10T09:01:17;30.92;;;15.02;;
22650;SDS011;11492;42.646;23.400;2023-02-10T09:03:45;31.48;;;15.20;;
22650;SDS011;11492;42.646;23.400;2023-02-10T09:06:12;29.85;;;14.90;;
22650;SDS011;11492;42.646;23.400;2023-02-10T09:08:40;29.83;;;14.25;;
22650;SDS011;11492;42.646;23.400;2023-02-10T09:11:07;31.17;;;14.68;;
22650;SDS011;11492;42.646;23.400;2023-02-10T09:13:33;31.02;;;13.27;;
22650;SDS011;11492;42.646;23.400;2023-02-10T09:15:58;24.90;;;13.07;;
22650;SDS011;11492;42.646;23.400;2023-02-10T09:18:24;32.03;;;14.50;;
22650;SDS011;11492;42.646;23.400;2023-02-10T09:20:49;27.13;;;14.50;;
22650;SDS011;11492;42.646;23.400;2023-02-10T09:23:15;27.83;;;13.75;;
22650;SDS011;11492;42.646;23.400;2023-02-10T09:25:40;26.40;;;14.15;;
22650;SDS011;11492;42.646;23.400;2023-02-10T09:28:05;25.98;;;13.52;;
22650;SDS011;11492;42.646;23.400;2023-02-10T09:30:31;25.33;;;13.48;;
22650;SDS011;11492;42.646;23.400;2023-02-10T09:32:56;33.50;;;13.07;;
22650;SDS011;11492;42.646;23.400;2023-02-10T09:35:22;31.35;;;13.70;;
22650;SDS011;11492;42.646;23.400;2023-02-10T09:37:47;24.70;;;13.27;;
22650;SDS011;11492;42.646;23.400;2023-02-10T09:40:16;32.05;;;15.27;;
22650;SDS011;11492;42.646;23.400;2023-02-10T09:45:39;33.55;;;16.95;;
22650;SDS011;11492;42.646;23.400;2023-02-10T09:48:29;32.30;;;15.90;;
22650;SDS011;11492;42.646;23.400;2023-02-10T09:51:14;32.75;;;16.25;;
22650;SDS011;11492;42.646;23.400;2023-02-10T09:53:51;41.97;;;18.23;;
22650;SDS011;11492;42.646;23.400;2023-02-10T09:56:17;32.47;;;17.95;;
22650;SDS011;11492;42.646;23.400;2023-02-10T09:58:46;38.58;;;18.17;;
22650;SDS011;11492;42.646;23.400;2023-02-10T10:01:26;35.58;;;18.25;;
22650;SDS011;11492;42.646;23.400;2023-02-10T10:03:59;43.63;;;19.60;;
22650;SDS011;11492;42.646;23.400;2023-02-10T10:06:34;52.22;;;20.05;;
22650;SDS011;11492;42.646;23.400;2023-02-10T10:11:40;43.35;;;22.90;;
22650;SDS011;11492;42.646;23.400;2023-02-10T10:14:31;58.97;;;24.15;;
22650;SDS011;11492;42.646;23.400;2023-02-10T10:26:20;45.13;;;22.70;;
22650;SDS011;11492;42.646;23.400;2023-02-10T10:31:24;52.08;;;22.25;;
22650;SDS011;11492;42.646;23.400;2023-02-10T10:33:56;46.08;;;20.88;;
22650;SDS011;11492;42.646;23.400;2023-02-10T10:39:06;43.78;;;21.08;;
22650;SDS011;11492;42.646;23.400;2023-02-10T10:41:38;57.55;;;18.85;;
22650;SDS011;11492;42.646;23.400;2023-02-10T10:44:07;37.47;;;18.98;;
22650;SDS011;11492;42.646;23.400;2023-02-10T10:46:40;38.80;;;17.98;;
22650;SDS011;11492;42.646;23.400;2023-02-10T10:49:14;37.60;;;16.55;;
22650;SDS011;11492;42.646;23.400;2023-02-10T10:51:40;30.77;;;16.05;;
22650;SDS011;11492;42.646;23.400;2023-02-10T10:54:10;39.03;;;16.48;;
22650;SDS011;11492;42.646;23.400;2023-02-10T10:56:50;32.38;;;15.85;;
22650;SDS011;11492;42.646;23.400;2023-02-10T11:01:48;23.77;;;13.57;;
22650;SDS011;11492;42.646;23.400;2023-02-10T11:04:18;24.02;;;13.82;;
22650;SDS011;11492;42.646;23.400;2023-02-10T11:06:52;26.67;;;12.95;;
22650;SDS011;11492;42.646;23.400;2023-02-10T11:14:47;27.08;;;14.82;;
22650;SDS011;11492;42.646;23.400;2023-02-10T11:22:30;34.53;;;16.98;;
22650;SDS011;11492;42.646;23.400;2023-02-10T11:24:57;33.45;;;17.45;;
22650;SDS011;11492;42.646;23.400;2023-02-10T11:27:25;33.38;;;15.80;;
22650;SDS011;11492;42.646;23.400;2023-02-10T11:29:52;36.05;;;16.80;;
22650;SDS011;11492;42.646;23.400;2023-02-10T11:32:20;36.10;;;18.05;;
22650;SDS011;11492;42.646;23.400;2023-02-10T11:34:48;32.90;;;16.83;;
22650;SDS011;11492;42.646;23.400;2023-02-10T11:37:19;31.92;;;16.73;;
22650;SDS011;11492;42.646;23.400;2023-02-10T11:39:49;29.23;;;16.67;;
22650;SDS011;11492;42.646;23.400;2023-02-10T11:44:55;36.47;;;15.95;;
22650;SDS011;11492;42.646;23.400;2023-02-10T11:47:27;30.02;;;15.80;;
22650;SDS011;11492;42.646;23.400;2023-02-10T11:49:54;31.90;;;17.23;;
22650;SDS011;11492;42.646;23.400;2023-02-10T11:52:21;32.50;;;16.83;;
22650;SDS011;11492;42.646;23.400;2023-02-10T11:54:49;31.42;;;15.80;;
22650;SDS011;11492;42.646;23.400;2023-02-10T12:00:14;32.47;;;15.48;;
22650;SDS011;11492;42.646;23.400;2023-02-10T12:05:16;32.72;;;15.52;;
22650;SDS011;11492;42.646;23.400;2023-02-10T12:08:13;28.00;;;15.73;;
22650;SDS011;11492;42.646;23.400;2023-02-10T12:10:43;25.23;;;14.98;;
22650;SDS011;11492;42.646;23.400;2023-02-10T12:19:00;32.88;;;15.68;;
22650;SDS011;11492;42.646;23.400;2023-02-10T12:27:04;27.52;;;14.50;;
22650;SDS011;11492;42.646;23.400;2023-02-10T12:32:26;29.40;;;15.90;;
22650;SDS011;11492;42.646;23.400;2023-02-10T12:37:46;35.15;;;15.57;;
22650;SDS011;11492;42.646;23.400;2023-02-10T12:42:56;28.00;;;15.63;;
22650;SDS011;11492;42.646;23.400;2023-02-10T12:45:49;24.92;;;14.13;;
22650;SDS011;11492;42.646;23.400;2023-02-10T12:53:57;31.40;;;16.40;;
22650;SDS011;11492;42.646;23.400;2023-02-10T12:56:30;32.22;;;14.93;;
22650;SDS011;11492;42.646;23.400;2023-02-10T13:01:59;30.17;;;15.07;;
22650;SDS011;11492;42.646;23.400;2023-02-10T13:04:36;28.52;;;15.48;;
22650;SDS011;11492;42.646;23.400;2023-02-10T13:10:35;35.28;;;17.30;;
22650;SDS011;11492;42.646;23.400;2023-02-10T13:12:44;28.50;;;15.30;;
22650;SDS011;11492;42.646;23.400;2023-02-10T13:15:16;30.70;;;15.93;;
22650;SDS011;11492;42.646;23.400;2023-02-10T13:17:47;37.45;;;15.05;;
22650;SDS011;11492;42.646;23.400;2023-02-10T13:28:53;35.33;;;15.15;;
22650;SDS011;11492;42.646;23.400;2023-02-10T13:37:07;33.28;;;15.55;;
22650;SDS011;11492;42.646;23.400;2023-02-10T13:52:49;30.70;;;15.32;;
22650;SDS011;11492;42.646;23.400;2023-02-10T13:57:58;39.33;;;17.35;;
22650;SDS011;11492;42.646;23.400;2023-02-10T14:05:59;32.63;;;16.67;;
22650;SDS011;11492;42.646;23.400;2023-02-10T14:08:34;36.63;;;17.05;;
22650;SDS011;11492;42.646;23.400;2023-02-10T14:11:26;36.00;;;18.42;;
22650;SDS011;11492;42.646;23.400;2023-02-10T14:14:04;38.70;;;17.10;;
22650;SDS011;11492;42.646;23.400;2023-02-10T14:16:44;41.05;;;17.77;;
22650;SDS011;11492;42.646;23.400;2023-02-10T14:19:45;47.70;;;17.33;;
22650;SDS011;11492;42.646;23.400;2023-02-10T14:22:05;54.57;;;18.83;;
22650;SDS011;11492;42.646;23.400;2023-02-10T14:24:35;45.97;;;18.33;;
22650;SDS011;11492;42.646;23.400;2023-02-10T14:27:08;45.58;;;18.75;;
22650;SDS011;11492;42.646;23.400;2023-02-10T14:29:38;46.47;;;18.35;;
22650;SDS011;11492;42.646;23.400;2023-02-10T14:32:11;39.30;;;18.52;;
22650;SDS011;11492;42.646;23.400;2023-02-10T14:34:39;39.28;;;19.10;;
22650;SDS011;11492;42.646;23.400;2023-02-10T14:37:17;43.67;;;17.98;;
22650;SDS011;11492;42.646;23.400;2023-02-10T14:39:55;43.25;;;18.42;;
22650;SDS011;11492;42.646;23.400;2023-02-10T14:42:27;39.70;;;18.48;;
22650;SDS011;11492;42.646;23.400;2023-02-10T14:44:58;46.03;;;18.77;;
22650;SDS011;11492;42.646;23.400;2023-02-10T14:47:30;44.25;;;20.90;;
22650;SDS011;11492;42.646;23.400;2023-02-10T14:49:59;46.75;;;19.10;;
22650;SDS011;11492;42.646;23.400;2023-02-10T14:52:32;41.50;;;18.38;;
22650;SDS011;11492;42.646;23.400;2023-02-10T14:54:59;49.45;;;18.90;;
22650;SDS011;11492;42.646;23.400;2023-02-10T14:57:26;43.65;;;18.83;;
22650;SDS011;11492;42.646;23.400;2023-02-10T14:59:57;39.28;;;18.35;;
22650;SDS011;11492;42.646;23.400;2023-02-10T15:02:28;40.40;;;18.63;;
22650;SDS011;11492;42.646;23.400;2023-02-10T15:04:56;44.63;;;19.17;;
22650;SDS011;11492;42.646;23.400;2023-02-10T15:07:28;51.97;;;18.25;;
22650;SDS011;11492;42.646;23.400;2023-02-10T15:09:58;46.88;;;19.70;;
22650;SDS011;11492;42.646;23.400;2023-02-10T15:12:40;45.85;;;20.42;;
22650;SDS011;11492;42.646;23.400;2023-02-10T15:17:39;49.42;;;19.98;;
22650;SDS011;11492;42.646;23.400;2023-02-10T15:33:39;53.72;;;21.15;;
22650;SDS011;11492;42.646;23.400;2023-02-10T15:38:49;60.70;;;21.52;;
22650;SDS011;11492;42.646;23.400;2023-02-10T15:46:45;95.18;;;30.27;;
22650;SDS011;11492;42.646;23.400;2023-02-10T15:49:12;85.38;;;31.55;;
22650;SDS011;11492;42.646;23.400;2023-02-10T15:51:43;97.10;;;38.53;;
22650;SDS011;11492;42.646;23.400;2023-02-10T15:54:15;65.88;;;28.30;;
22650;SDS011;11492;42.646;23.400;2023-02-10T15:57:03;79.00;;;28.48;;
22650;SDS011;11492;42.646;23.400;2023-02-10T15:59:30;75.70;;;27.00;;
22650;SDS011;11492;42.646;23.400;2023-02-10T16:01:57;66.57;;;27.20;;
22650;SDS011;11492;42.646;23.400;2023-02-10T16:04:24;93.78;;;29.80;;
22650;SDS011;11492;42.646;23.400;2023-02-10T16:06:49;79.10;;;27.80;;
22650;SDS011;11492;42.646;23.400;2023-02-10T16:09:15;92.50;;;28.13;;
22650;SDS011;11492;42.646;23.400;2023-02-10T16:11:40;63.42;;;28.17;;
22650;SDS011;11492;42.646;23.400;2023-02-10T16:14:06;86.07;;;28.83;;
22650;SDS011;11492;42.646;23.400;2023-02-10T16:16:31;82.97;;;28.70;;
22650;SDS011;11492;42.646;23.400;2023-02-10T16:19:00;83.68;;;29.70;;
22650;SDS011;11492;42.646;23.400;2023-02-10T16:21:26;73.18;;;28.83;;
22650;SDS011;11492;42.646;23.400;2023-02-10T16:23:51;84.15;;;29.88;;
22650;SDS011;11492;42.646;23.400;2023-02-10T16:26:21;79.68;;;30.52;;
22650;SDS011;11492;42.646;23.400;2023-02-10T16:28:48;97.25;;;31.05;;
22650;SDS011;11492;42.646;23.400;2023-02-10T16:31:14;90.85;;;32.75;;
22650;SDS011;11492;42.646;23.400;2023-02-10T16:33:40;94.63;;;32.63;;
22650;SDS011;11492;42.646;23.400;2023-02-10T16:36:07;88.60;;;32.97;;
22650;SDS011;11492;42.646;23.400;2023-02-10T16:38:35;93.70;;;33.70;;
22650;SDS011;11492;42.646;23.400;2023-02-10T16:41:01;102.85;;;34.83;;
22650;SDS011;11492;42.646;23.400;2023-02-10T16:43:26;86.47;;;32.65;;
22650;SDS011;11492;42.646;23.400;2023-02-10T16:45:52;81.60;;;32.20;;